Ryusyou — JD2018 — position and weather

sailwx.info

Track history (hours):
 
Tides and Currents Weather Stations Pressure Air Temp Water Temp Dewpoint Dewpoint Depression Visibility Wind Speed Wind Dir Waves Ship Positions

Ryusyou

Last reported at 2017-Nov-10 03:10 UTC. Time now 2017-Nov-21 19:19 UTC.
Position N 34°38' E 134°56'.
Warning: this ship's position is 11 days out of date.

Length 55 m; draft 4 m.

Type: Cargo ship. MMSI: 431602277.

Date/timePositionNaut miles runAvg speedWind from/ knotsBaromVisibWave heightAir tempDewpointWater temp
2017-Nov-10 03:10N 34°38' E 134°56'214.6
2017-Nov-10 03:00N 34°38' E 134°59'713.6
2017-Nov-10 02:30N 34°35' E 135°07'510.7
2017-Nov-10 02:00N 34°32' E 135°11'711.4
2017-Nov-10 01:22N 34°29' E 135°20'2 4.6
2017-Nov-10 00:56N 34°27' E 135°21'0 0.0
2017-Nov-09 13:57N 34°27' E 135°21'2 4.1
2017-Nov-09 13:28N 34°29' E 135°20'5 9.9
2017-Nov-09 13:00N 34°31' E 135°14'510.0
2017-Nov-09 12:30N 34°33' E 135°09'611.8
2017-Nov-09 12:00N 34°36' E 135°03'  
Track history (hours):
 
Tides and Currents Weather Stations Pressure Air Temp Water Temp Dewpoint Dewpoint Depression Visibility Wind Speed Wind Dir Waves Ship Positions

Ryusyou

Last reported at 2017-Nov-10 03:10 UTC. Time now 2017-Nov-21 19:19 UTC.
Position N 34°38' E 134°56'.
Warning: this ship's position is 11 days out of date.

Length 55 m; draft 4 m.

Type: Cargo ship. MMSI: 431602277.

Date/timePositionNaut miles runAvg speedWind from/ knotsBaromVisibWave heightAir tempDewpointWater temp
2017-Nov-10 03:10N 34°38' E 134°56'214.6
2017-Nov-10 03:00N 34°38' E 134°59'713.6
2017-Nov-10 02:30N 34°35' E 135°07'510.7
2017-Nov-10 02:00N 34°32' E 135°11'711.4
2017-Nov-10 01:22N 34°29' E 135°20'2 4.6
2017-Nov-10 00:56N 34°27' E 135°21'0 0.0
2017-Nov-09 13:57N 34°27' E 135°21'2 4.1
2017-Nov-09 13:28N 34°29' E 135°20'5 9.9
2017-Nov-09 13:00N 34°31' E 135°14'510.0
2017-Nov-09 12:30N 34°33' E 135°09'611.8
2017-Nov-09 12:00N 34°36' E 135°03'  

Dump ship's entire track history